createdAt,value
2022-08-05T00:01:48.278Z,101407.59
2022-08-05T00:04:19.742Z,101414.63
2022-08-05T00:06:51.916Z,101408.34
2022-08-05T00:09:20.245Z,101402.19
2022-08-05T00:11:55.340Z,101386.25
2022-08-05T00:14:27.702Z,101382.81
2022-08-05T00:16:57.785Z,101382.03
2022-08-05T00:19:33.673Z,101394.59
2022-08-05T00:22:13.346Z,101392.97
2022-08-05T00:24:42.283Z,101384.84
2022-08-05T00:27:16.558Z,101387.44
2022-08-05T00:29:45.436Z,101376.78
2022-08-05T00:32:15.349Z,101379.38
2022-08-05T00:35:05.245Z,101375.75
2022-08-05T00:37:50.420Z,101377.47
2022-08-05T00:40:26.790Z,101388.28
2022-08-05T00:42:58.698Z,101395.53
2022-08-05T00:45:37.829Z,101391.22
2022-08-05T00:48:09.252Z,101393.03
2022-08-05T00:50:38.934Z,101390.38
2022-08-05T00:53:59.858Z,101370.75
2022-08-05T00:55:57.188Z,101381.53
2022-08-05T00:58:27.657Z,101384.19
2022-08-05T01:00:55.852Z,101379.72
2022-08-05T01:03:24.365Z,101380.75
2022-08-05T01:05:58.734Z,101388.91
2022-08-05T01:08:41.180Z,101381.84
2022-08-05T01:11:21.729Z,101377.38
2022-08-05T01:14:11.806Z,101381.84
2022-08-05T01:17:17.425Z,101367.66
2022-08-05T01:20:09.611Z,101374.09
2022-08-05T01:22:57.805Z,101370.84
2022-08-05T01:25:54.021Z,101382.59
2022-08-05T01:28:42.563Z,101386.38
2022-08-05T01:31:16.771Z,101393.59
2022-08-05T01:34:04.969Z,101407.84
2022-08-05T01:36:47.063Z,101415.25
2022-08-05T01:39:45.780Z,101432.94
2022-08-05T01:42:12.373Z,101435.75
2022-08-05T01:44:54.228Z,101439.28
2022-08-05T01:47:24.673Z,101440.22
2022-08-05T01:50:18.715Z,101442.00
2022-08-05T01:53:02.297Z,101451.88
2022-08-05T01:55:36.342Z,101459.97
2022-08-05T01:58:12.867Z,101457.31
2022-08-05T02:00:50.269Z,101442.19
2022-08-05T02:03:38.991Z,101432.44
2022-08-05T02:06:33.881Z,101445.94
2022-08-05T02:08:59.026Z,101464.59
2022-08-05T02:11:37.565Z,101470.84
2022-08-05T02:14:20.854Z,101461.88
2022-08-05T02:16:54.391Z,101466.16
2022-08-05T02:19:28.171Z,101455.31
2022-08-05T02:22:25.822Z,101439.22
2022-08-05T02:25:08.359Z,101421.56
2022-08-05T02:27:59.382Z,101428.09
2022-08-05T02:30:54.598Z,101427.38
2022-08-05T02:33:36.133Z,101410.84
2022-08-05T02:36:13.564Z,101407.56
2022-08-05T02:38:53.356Z,101418.53
2022-08-05T02:41:29.010Z,101429.38
2022-08-05T02:44:13.844Z,101448.06
2022-08-05T02:46:58.298Z,101447.22
2022-08-05T02:49:37.887Z,101442.94
2022-08-05T02:52:30.201Z,101426.06
2022-08-05T02:55:05.562Z,101418.25
2022-08-05T02:58:11.485Z,101433.56
2022-08-05T03:00:29.554Z,101447.22
2022-08-05T03:02:59.157Z,101458.63
2022-08-05T03:06:55.670Z,101459.34
2022-08-05T03:08:17.023Z,101441.56
2022-08-05T03:11:53.165Z,101428.44
2022-08-05T03:13:52.198Z,101419.72
2022-08-05T03:16:29.901Z,101391.47
2022-08-05T03:19:01.414Z,101388.94
2022-08-05T03:21:41.706Z,101383.72
2022-08-05T03:24:26.856Z,101382.94
2022-08-05T03:27:01.211Z,101392.09
2022-08-05T03:29:45.120Z,101386.91
2022-08-05T03:32:19.508Z,101397.72
2022-08-05T03:34:51.302Z,101411.88
2022-08-05T03:37:23.495Z,101417.28
2022-08-05T03:40:01.202Z,101415.56
2022-08-05T03:42:32.127Z,101412.13
2022-08-05T03:45:01.832Z,101420.19
2022-08-05T03:47:49.349Z,101420.19
2022-08-05T03:50:17.220Z,101418.31
2022-08-05T03:55:00.017Z,101413.69
2022-08-05T03:56:11.922Z,101414.56
2022-08-05T03:58:46.062Z,101424.28
2022-08-05T04:01:20.885Z,101435.78
2022-08-05T04:03:56.898Z,101435.72
2022-08-05T04:06:37.953Z,101432.94
2022-08-05T04:09:06.625Z,101435.47
2022-08-05T04:11:50.454Z,101434.44
2022-08-05T04:14:29.400Z,101446.72
2022-08-05T04:17:00.699Z,101445.03
2022-08-05T04:19:29.659Z,101426.63
2022-08-05T04:22:09.131Z,101420.59
2022-08-05T04:24:52.623Z,101422.47
2022-08-05T04:27:33.240Z,101424.34
2022-08-05T04:30:09.930Z,101431.53
2022-08-05T04:32:38.032Z,101443.22
2022-08-05T04:35:07.771Z,101438.88
2022-08-05T04:38:01.061Z,101457.50
2022-08-05T04:40:37.838Z,101460.88
2022-08-05T04:43:16.318Z,101466.94
2022-08-05T04:45:48.792Z,101465.06
2022-08-05T04:48:27.354Z,101462.22
2022-08-05T04:51:03.304Z,101452.53
2022-08-05T04:53:38.621Z,101459.31
2022-08-05T04:56:32.832Z,101456.34
2022-08-05T04:58:56.948Z,101454.91
2022-08-05T05:01:59.644Z,101463.06
2022-08-05T05:04:12.625Z,101469.41
2022-08-05T05:06:49.393Z,101456.91
2022-08-05T05:09:24.971Z,101444.03
2022-08-05T05:11:56.834Z,101439.16
2022-08-05T05:14:32.058Z,101451.84
2022-08-05T05:17:00.664Z,101455.41
2022-08-05T05:19:36.496Z,101451.84
2022-08-05T05:22:23.510Z,101454.63
2022-08-05T05:25:00.143Z,101457.06
2022-08-05T05:27:44.866Z,101443.75
2022-08-05T05:30:31.341Z,101440.13
2022-08-05T05:33:16.001Z,101445.56
2022-08-05T05:35:46.997Z,101450.00
2022-08-05T05:38:22.649Z,101452.59
2022-08-05T05:40:56.471Z,101461.22
2022-08-05T05:43:56.382Z,101458.34
2022-08-05T05:46:17.470Z,101464.38
2022-08-05T05:48:48.541Z,101477.44
2022-08-05T05:51:25.716Z,101473.78
2022-08-05T05:53:59.302Z,101471.97
2022-08-05T05:56:32.883Z,101470.97
2022-08-05T05:59:07.395Z,101473.72
2022-08-05T06:01:39.772Z,101466.59
2022-08-05T06:04:14.469Z,101465.66
2022-08-05T06:06:47.689Z,101466.34
2022-08-05T06:09:24.845Z,101470.69
2022-08-05T06:12:01.146Z,101472.38
2022-08-05T06:14:31.283Z,101485.44
2022-08-05T06:17:01.993Z,101489.59
2022-08-05T06:19:56.309Z,101492.09
2022-08-05T06:22:30.513Z,101484.78
2022-08-05T06:25:24.321Z,101489.72
2022-08-05T06:28:10.865Z,101495.75
2022-08-05T06:30:43.646Z,101497.25
2022-08-05T06:33:11.086Z,101497.97
2022-08-05T06:36:07.489Z,101503.91
2022-08-05T06:38:36.529Z,101513.63
2022-08-05T06:41:07.983Z,101509.88
2022-08-05T06:43:59.012Z,101515.81
2022-08-05T06:46:29.673Z,101505.81
2022-08-05T06:49:00.983Z,101500.19
2022-08-05T06:51:31.074Z,101502.59
2022-08-05T06:54:04.409Z,101504.16
2022-08-05T06:56:34.754Z,101510.13
2022-08-05T06:59:09.705Z,101510.75
2022-08-05T07:01:41.547Z,101520.25
2022-08-05T07:04:10.280Z,101525.28
2022-08-05T07:06:37.998Z,101521.53
2022-08-05T07:09:05.636Z,101518.69
2022-08-05T07:11:36.815Z,101528.25
2022-08-05T07:14:29.612Z,101542.34
2022-08-05T07:18:02.353Z,101538.75
2022-08-05T07:20:31.550Z,101537.66
2022-08-05T07:22:38.802Z,101545.34
2022-08-05T07:25:24.050Z,101536.06
2022-08-05T07:27:57.363Z,101547.19
2022-08-05T07:30:32.118Z,101541.63
2022-08-05T07:33:09.359Z,101546.53
2022-08-05T07:36:01.875Z,101554.19
2022-08-05T07:38:32.412Z,101559.38
2022-08-05T07:42:08.289Z,101565.16
2022-08-05T07:44:14.132Z,101561.31
2022-08-05T07:46:42.123Z,101564.56
2022-08-05T07:49:16.179Z,101554.41
2022-08-05T07:51:54.539Z,101555.00
2022-08-05T07:54:30.924Z,101561.78
2022-08-05T07:57:17.695Z,101555.50
2022-08-05T07:59:52.320Z,101565.06
2022-08-05T08:02:31.388Z,101570.91
2022-08-05T08:05:15.446Z,101570.75
2022-08-05T08:07:59.686Z,101572.41
2022-08-05T08:10:30.138Z,101581.88
2022-08-05T08:12:58.776Z,101578.94
2022-08-05T08:16:35.754Z,101576.84
2022-08-05T08:18:14.695Z,101587.88
2022-08-05T08:21:03.094Z,101583.81
2022-08-05T08:24:01.408Z,101586.75
2022-08-05T08:26:26.716Z,101589.78
2022-08-05T08:29:21.698Z,101591.66
2022-08-05T08:31:48.631Z,101598.53
2022-08-05T08:34:30.569Z,101603.88
2022-08-05T08:37:03.247Z,101608.44
2022-08-05T08:39:37.405Z,101613.22
2022-08-05T08:42:27.566Z,101613.63
2022-08-05T08:45:18.684Z,101616.72
2022-08-05T08:48:10.434Z,101629.44
2022-08-05T08:51:03.455Z,101633.22
2022-08-05T08:53:37.008Z,101629.97
2022-08-05T08:56:06.626Z,101637.38
2022-08-05T08:58:43.098Z,101637.50
2022-08-05T09:01:16.368Z,101639.03
2022-08-05T09:03:55.071Z,101639.53
2022-08-05T09:06:30.601Z,101648.16
2022-08-05T09:09:00.993Z,101642.97
2022-08-05T09:11:52.767Z,101651.28
2022-08-05T09:14:58.532Z,101648.09
2022-08-05T09:17:16.092Z,101650.28
2022-08-05T09:20:05.448Z,101654.59
2022-08-05T09:23:19.810Z,101650.59
2022-08-05T09:26:01.420Z,101668.88
2022-08-05T09:28:34.735Z,101665.00
2022-08-05T09:31:23.353Z,101662.09
2022-08-05T09:33:55.124Z,101671.59
2022-08-05T09:36:27.775Z,101669.59
2022-08-05T09:39:16.580Z,101671.88
2022-08-05T09:42:01.572Z,101678.19
2022-08-05T09:44:49.363Z,101676.84
2022-08-05T09:47:29.479Z,101680.56
2022-08-05T09:50:18.219Z,101689.38
2022-08-05T09:53:02.089Z,101691.09
2022-08-05T09:55:58.686Z,101684.66
2022-08-05T09:58:26.279Z,101686.41
2022-08-05T10:01:14.982Z,101692.13
2022-08-05T10:04:29.408Z,101692.66
2022-08-05T10:06:59.609Z,101703.66
2022-08-05T10:09:29.833Z,101707.53
2022-08-05T10:12:30.736Z,101702.19
2022-08-05T10:15:20.854Z,101715.41
2022-08-05T10:18:16.882Z,101707.59
2022-08-05T10:20:56.703Z,101714.38
2022-08-05T10:23:55.128Z,101706.41
2022-08-05T10:26:24.264Z,101713.28
2022-08-05T10:28:59.751Z,101713.97
2022-08-05T10:32:54.989Z,101707.34
2022-08-05T10:34:17.017Z,101713.44
2022-08-05T10:36:46.380Z,101704.84
2022-08-05T10:39:58.906Z,101712.63
2022-08-05T10:42:33.728Z,101714.28
2022-08-05T10:45:20.980Z,101715.84
2022-08-05T10:48:29.919Z,101717.72
2022-08-05T10:51:21.750Z,101722.34
2022-08-05T10:53:56.045Z,101723.53
2022-08-05T10:56:39.586Z,101728.78
2022-08-05T11:00:01.269Z,101721.59
2022-08-05T11:02:38.371Z,101720.25
2022-08-05T11:05:10.441Z,101716.03
2022-08-05T11:08:33.832Z,101719.41
2022-08-05T11:11:44.783Z,101727.88
2022-08-05T11:14:57.784Z,101733.78
2022-08-05T11:17:57.884Z,101737.34
2022-08-05T11:20:43.940Z,101736.97
2022-08-05T11:23:33.174Z,101748.66
2022-08-05T11:26:10.881Z,101742.22
2022-08-05T11:28:43.174Z,101742.75
2022-08-05T11:31:11.201Z,101747.59
2022-08-05T11:33:48.198Z,101753.25
2022-08-05T11:36:34.278Z,101752.19
2022-08-05T11:39:55.244Z,101749.03
2022-08-05T11:42:40.338Z,101748.88
2022-08-05T11:46:16.182Z,101753.25
2022-08-05T11:48:36.372Z,101752.94
2022-08-05T11:51:08.411Z,101758.84
2022-08-05T11:53:42.030Z,101772.09
2022-08-05T11:56:11.362Z,101770.06
2022-08-05T11:58:43.432Z,101776.53
2022-08-05T12:01:22.591Z,101779.53
2022-08-05T12:03:57.055Z,101778.13
2022-08-05T12:06:30.373Z,101784.91
2022-08-05T12:08:59.667Z,101784.69
2022-08-05T12:11:40.183Z,101784.28
2022-08-05T12:14:10.271Z,101794.06
2022-08-05T12:16:45.168Z,101790.06
2022-08-05T12:20:25.539Z,101796.19
2022-08-05T12:22:07.892Z,101802.69
2022-08-05T12:24:49.418Z,101807.31
2022-08-05T12:27:32.475Z,101823.38
2022-08-05T12:30:15.569Z,101823.53
2022-08-05T12:32:51.229Z,101845.31
2022-08-05T12:35:21.710Z,101835.84
2022-08-05T12:37:50.021Z,101829.81
2022-08-05T12:40:26.827Z,101841.31
2022-08-05T12:42:57.181Z,101840.13
2022-08-05T12:45:49.642Z,101834.47
2022-08-05T12:48:27.509Z,101841.25
2022-08-05T12:52:11.210Z,101837.44
2022-08-05T12:54:04.605Z,101841.53
2022-08-05T12:56:54.029Z,101853.16
2022-08-05T13:00:08.915Z,101854.38
2022-08-05T13:02:21.333Z,101860.25
2022-08-05T13:04:55.896Z,101866.81
2022-08-05T13:07:55.934Z,101877.13
2022-08-05T13:10:19.884Z,101879.53
2022-08-05T13:12:57.518Z,101873.06
2022-08-05T13:15:35.932Z,101886.84
2022-08-05T13:18:18.826Z,101887.69
2022-08-05T13:20:50.083Z,101889.06
2022-08-05T13:23:22.410Z,101889.94
2022-08-05T13:25:59.682Z,101894.88
2022-08-05T13:28:29.073Z,101898.13
2022-08-05T13:31:00.015Z,101882.94
2022-08-05T13:34:23.836Z,101892.75
2022-08-05T13:36:27.133Z,101892.16
2022-08-05T13:38:57.267Z,101891.56
2022-08-05T13:41:36.107Z,101899.00
2022-08-05T13:44:05.208Z,101894.38
2022-08-05T13:46:37.702Z,101900.72
2022-08-05T13:49:12.676Z,101895.03
2022-08-05T13:51:46.096Z,101901.22
2022-08-05T13:54:21.118Z,101904.88
2022-08-05T13:56:54.664Z,101904.44
2022-08-05T13:59:24.853Z,101900.31
2022-08-05T14:02:00.008Z,101914.09
2022-08-05T14:04:51.703Z,101911.94
2022-08-05T14:08:00.228Z,101911.84
2022-08-05T14:10:28.959Z,101915.13
2022-08-05T14:12:59.846Z,101929.78
2022-08-05T14:16:09.088Z,101912.06
2022-08-05T14:18:18.321Z,101919.13
2022-08-05T14:20:48.170Z,101919.81
2022-08-05T14:23:23.862Z,101928.47
2022-08-05T14:25:58.795Z,101936.59
2022-08-05T14:28:28.797Z,101937.13
2022-08-05T14:31:01.509Z,101945.66
2022-08-05T14:33:32.439Z,101935.84
2022-08-05T14:36:21.683Z,101949.13
2022-08-05T14:38:51.200Z,101955.25
2022-08-05T14:41:18.960Z,101957.44
2022-08-05T14:44:02.435Z,101946.25
2022-08-05T14:46:35.067Z,101945.06
2022-08-05T14:49:07.571Z,101954.19
2022-08-05T14:51:38.877Z,101955.91
2022-08-05T14:54:29.894Z,101954.66
2022-08-05T14:56:59.881Z,101956.97
2022-08-05T14:59:29.551Z,101957.38
2022-08-05T15:02:15.774Z,101956.78
2022-08-05T15:04:47.692Z,101959.59
2022-08-05T15:08:06.188Z,101964.34
2022-08-05T15:10:03.952Z,101954.25
2022-08-05T15:12:51.620Z,101967.13
2022-08-05T15:15:55.323Z,101951.81
2022-08-05T15:18:07.857Z,101960.75
2022-08-05T15:20:37.541Z,101972.00
2022-08-05T15:23:11.143Z,101970.47
2022-08-05T15:25:53.777Z,101974.72
2022-08-05T15:28:27.426Z,101972.22
2022-08-05T15:30:56.488Z,101978.56
2022-08-05T15:34:05.630Z,101976.44
2022-08-05T15:36:17.798Z,101975.81
2022-08-05T15:40:59.157Z,101978.16
2022-08-05T15:41:56.171Z,101988.69
2022-08-05T15:44:30.217Z,101984.81
2022-08-05T15:47:04.271Z,101987.81
2022-08-05T15:49:48.216Z,101978.13
2022-08-05T15:52:51.647Z,101989.09
2022-08-05T15:55:16.122Z,101980.16
2022-08-05T15:57:45.128Z,101978.72
2022-08-05T16:00:16.900Z,101981.38
2022-08-05T16:02:54.158Z,101984.66
2022-08-05T16:05:22.834Z,101988.88
2022-08-05T16:07:57.218Z,101984.28
2022-08-05T16:10:25.603Z,101989.22
2022-08-05T16:12:56.124Z,101991.66
2022-08-05T16:15:24.361Z,101991.34
2022-08-05T16:18:00.195Z,101994.00
2022-08-05T16:20:27.920Z,101993.19
2022-08-05T16:22:55.606Z,102007.25
2022-08-05T16:25:34.031Z,101995.13
2022-08-05T16:28:06.056Z,101997.97
2022-08-05T16:30:36.087Z,102002.25
2022-08-05T16:33:04.007Z,102004.56
2022-08-05T16:35:33.628Z,102006.25
2022-08-05T16:38:24.606Z,102018.16
2022-08-05T16:41:00.194Z,102016.78
2022-08-05T16:43:32.212Z,102015.25
2022-08-05T16:46:12.818Z,102021.97
2022-08-05T16:48:50.485Z,102035.75
2022-08-05T16:51:18.823Z,102027.31
2022-08-05T16:54:02.764Z,102033.34
2022-08-05T16:56:35.351Z,102035.44
2022-08-05T16:59:10.619Z,102040.03
2022-08-05T17:01:53.576Z,102049.13
2022-08-05T17:04:28.266Z,102049.41
2022-08-05T17:07:01.080Z,102052.38
2022-08-05T17:09:31.015Z,102057.84
2022-08-05T17:12:18.393Z,102052.31
2022-08-05T17:14:50.315Z,102056.53
2022-08-05T17:17:17.871Z,102060.84
2022-08-05T17:19:47.223Z,102077.63
2022-08-05T17:22:25.571Z,102080.13
2022-08-05T17:24:57.640Z,102065.75
2022-08-05T17:27:33.607Z,102071.22
2022-08-05T17:30:18.757Z,102086.47
2022-08-05T17:32:55.251Z,102083.13
2022-08-05T17:35:23.008Z,102084.88
2022-08-05T17:37:50.691Z,102083.88
2022-08-05T17:40:22.468Z,102100.34
2022-08-05T17:42:52.983Z,102098.19
2022-08-05T17:45:24.875Z,102107.25
2022-08-05T17:47:56.097Z,102106.13
2022-08-05T17:50:28.771Z,102104.00
2022-08-05T17:53:01.531Z,102112.28
2022-08-05T17:55:38.449Z,102124.28
2022-08-05T17:58:14.550Z,102124.13
2022-08-05T18:00:50.765Z,102115.25
2022-08-05T18:06:11.535Z,102134.91
2022-08-05T18:08:44.490Z,102141.94
2022-08-05T18:11:23.135Z,102148.91
2022-08-05T18:13:52.899Z,102149.06
2022-08-05T18:16:21.583Z,102148.41
2022-08-05T18:18:49.951Z,102152.97
2022-08-05T18:21:21.233Z,102145.81
2022-08-05T18:23:53.690Z,102164.41
2022-08-05T18:26:27.658Z,102166.19
2022-08-05T18:28:58.228Z,102169.66
2022-08-05T18:31:33.902Z,102174.78
2022-08-05T18:34:06.154Z,102179.28
2022-08-05T18:36:35.505Z,102179.22
2022-08-05T18:39:22.349Z,102173.50
2022-08-05T18:42:01.179Z,102183.78
2022-08-05T18:44:49.239Z,102188.59
2022-08-05T18:47:26.603Z,102190.66
2022-08-05T18:50:15.629Z,102192.09
2022-08-05T18:52:50.948Z,102197.06
2022-08-05T18:55:21.544Z,102196.63
2022-08-05T18:57:53.902Z,102199.69
2022-08-05T19:00:30.679Z,102204.69
2022-08-05T19:03:03.796Z,102211.41
2022-08-05T19:06:13.041Z,102208.34
2022-08-05T19:08:30.925Z,102212.38
2022-08-05T19:10:59.642Z,102218.97
2022-08-05T19:13:35.956Z,102217.56
2022-08-05T19:16:25.173Z,102230.41
2022-08-05T19:21:36.213Z,102228.69
2022-08-05T19:24:12.203Z,102237.97
2022-08-05T19:26:43.882Z,102238.31
2022-08-05T19:29:26.638Z,102248.44
2022-08-05T19:32:17.729Z,102255.09
2022-08-05T19:34:55.317Z,102259.91
2022-08-05T19:37:30.103Z,102262.91
2022-08-05T19:40:12.639Z,102252.56
2022-08-05T19:42:42.842Z,102259.94
2022-08-05T19:45:30.578Z,102262.00
2022-08-05T19:48:06.114Z,102262.22
2022-08-05T19:50:34.900Z,102273.94
2022-08-05T19:53:10.706Z,102274.09
2022-08-05T19:56:14.879Z,102277.84
2022-08-05T19:58:29.211Z,102283.38
2022-08-05T20:00:58.467Z,102291.47
2022-08-05T20:03:26.457Z,102286.31
2022-08-05T20:05:56.664Z,102287.31
2022-08-05T20:08:24.815Z,102285.69
2022-08-05T20:10:53.652Z,102292.97
2022-08-05T20:13:54.582Z,102296.63
2022-08-05T20:16:09.983Z,102295.94
2022-08-05T20:18:38.580Z,102296.03
2022-08-05T20:21:07.478Z,102297.06
2022-08-05T20:23:40.079Z,102307.81
2022-08-05T20:26:24.851Z,102304.44
2022-08-05T20:28:57.339Z,102311.72
2022-08-05T20:31:37.323Z,102312.78
2022-08-05T20:34:11.628Z,102316.53
2022-08-05T20:36:43.181Z,102329.97
2022-08-05T20:39:16.466Z,102323.94
2022-08-05T20:41:46.716Z,102327.69
2022-08-05T20:44:30.521Z,102326.13
2022-08-05T20:47:05.305Z,102321.88
2022-08-05T20:49:39.532Z,102318.50
2022-08-05T20:52:08.618Z,102333.69
2022-08-05T20:54:43.631Z,102327.63
2022-08-05T20:57:42.018Z,102334.84
2022-08-05T21:00:35.048Z,102336.81
2022-08-05T21:03:07.588Z,102344.94
2022-08-05T21:05:54.060Z,102344.16
2022-08-05T21:08:28.053Z,102345.25
2022-08-05T21:11:10.067Z,102348.94
2022-08-05T21:13:47.462Z,102357.91
2022-08-05T21:16:30.169Z,102350.19
2022-08-05T21:19:01.995Z,102360.00
2022-08-05T21:21:44.455Z,102353.13
2022-08-05T21:24:19.657Z,102348.84
2022-08-05T21:26:57.909Z,102356.91
2022-08-05T21:29:32.214Z,102357.03
2022-08-05T21:32:02.286Z,102368.63
2022-08-05T21:34:31.468Z,102356.38
2022-08-05T21:36:59.377Z,102359.16
2022-08-05T21:39:27.925Z,102359.22
2022-08-05T21:42:01.538Z,102370.84
2022-08-05T21:44:31.734Z,102370.03
2022-08-05T21:47:00.422Z,102385.97
2022-08-05T21:49:59.367Z,102377.25
2022-08-05T21:52:27.467Z,102379.13
2022-08-05T21:55:06.935Z,102370.44
2022-08-05T21:57:42.653Z,102376.66
2022-08-05T22:00:12.820Z,102378.50
2022-08-05T22:02:42.665Z,102392.69
2022-08-05T22:05:12.409Z,102389.22
2022-08-05T22:07:59.116Z,102388.38
2022-08-05T22:10:28.168Z,102387.59
2022-08-05T22:12:59.001Z,102392.03
2022-08-05T22:16:01.397Z,102394.72
2022-08-05T22:18:25.848Z,102393.94
2022-08-05T22:20:53.747Z,102405.47
2022-08-05T22:24:02.269Z,102403.75
2022-08-05T22:26:49.608Z,102397.63
2022-08-05T22:29:26.470Z,102404.84
2022-08-05T22:31:59.376Z,102405.78
2022-08-05T22:34:30.951Z,102403.19
2022-08-05T22:36:59.231Z,102409.41
2022-08-05T22:39:33.654Z,102414.78
2022-08-05T22:42:09.564Z,102418.50
2022-08-05T22:44:39.479Z,102414.16
2022-08-05T22:47:07.913Z,102424.78
2022-08-05T22:50:18.361Z,102424.84
2022-08-05T22:52:32.550Z,102431.03
2022-08-05T22:55:04.469Z,102429.31
2022-08-05T22:57:51.955Z,102428.50
2022-08-05T23:00:24.277Z,102430.28
2022-08-05T23:02:54.153Z,102432.13
2022-08-05T23:05:22.880Z,102433.03
2022-08-05T23:07:51.933Z,102433.09
2022-08-05T23:10:23.591Z,102435.78
2022-08-05T23:12:55.533Z,102431.41
2022-08-05T23:15:30.025Z,102442.06
2022-08-05T23:18:11.355Z,102433.31
2022-08-05T23:20:39.537Z,102436.91
2022-08-05T23:23:08.522Z,102436.97
2022-08-05T23:25:52.477Z,102443.19
2022-08-05T23:28:23.031Z,102445.94
2022-08-05T23:30:53.968Z,102445.94
2022-08-05T23:33:26.484Z,102446.00
2022-08-05T23:36:11.167Z,102442.53
2022-08-05T23:38:42.780Z,102443.41
2022-08-05T23:41:11.144Z,102454.03
2022-08-05T23:44:03.161Z,102461.94
2022-08-05T23:46:40.632Z,102460.19
2022-08-05T23:49:16.927Z,102457.63
2022-08-05T23:52:05.760Z,102462.06
2022-08-05T23:54:38.422Z,102461.19
2022-08-05T23:57:08.080Z,102462.09
